sensor_id;sensor_type;location;lat;lon;timestamp;P1;durP1;ratioP1;P2;durP2;ratioP2
41167;SDS011;26906;45.658;9.272;2022-10-15T07:08:51;63.28;;;43.22;;
41167;SDS011;26906;45.658;9.272;2022-10-15T07:11:16;61.92;;;44.13;;
41167;SDS011;26906;45.658;9.272;2022-10-15T07:13:42;66.07;;;43.85;;
41167;SDS011;26906;45.658;9.272;2022-10-15T07:16:09;64.10;;;43.90;;
41167;SDS011;26906;45.658;9.272;2022-10-15T07:18:38;69.18;;;45.15;;
41167;SDS011;26906;45.658;9.272;2022-10-15T07:21:04;70.63;;;44.92;;
41167;SDS011;26906;45.658;9.272;2022-10-15T07:23:32;76.57;;;51.67;;
41167;SDS011;26906;45.658;9.272;2022-10-15T07:25:58;85.80;;;52.03;;
41167;SDS011;26906;45.658;9.272;2022-10-15T07:28:25;64.25;;;46.65;;
41167;SDS011;26906;45.658;9.272;2022-10-15T07:30:50;79.00;;;48.67;;
41167;SDS011;26906;45.658;9.272;2022-10-15T07:33:17;80.88;;;51.92;;
41167;SDS011;26906;45.658;9.272;2022-10-15T07:35:52;73.95;;;48.30;;
41167;SDS011;26906;45.658;9.272;2022-10-15T07:38:18;66.03;;;45.72;;
41167;SDS011;26906;45.658;9.272;2022-10-15T07:40:43;73.07;;;47.03;;
41167;SDS011;26906;45.658;9.272;2022-10-15T07:43:09;74.70;;;49.85;;
41167;SDS011;26906;45.658;9.272;2022-10-15T07:45:35;74.43;;;47.00;;
41167;SDS011;26906;45.658;9.272;2022-10-15T07:48:01;70.07;;;46.75;;
41167;SDS011;26906;45.658;9.272;2022-10-15T07:50:27;72.43;;;46.38;;
41167;SDS011;26906;45.658;9.272;2022-10-15T07:52:57;68.28;;;45.35;;
41167;SDS011;26906;45.658;9.272;2022-10-15T07:55:23;66.30;;;44.53;;
41167;SDS011;26906;45.658;9.272;2022-10-15T07:57:49;64.50;;;45.40;;
41167;SDS011;26906;45.658;9.272;2022-10-15T08:00:15;71.82;;;44.90;;
41167;SDS011;26906;45.658;9.272;2022-10-15T08:02:41;70.43;;;46.30;;
41167;SDS011;26906;45.658;9.272;2022-10-15T08:05:07;70.40;;;47.75;;
41167;SDS011;26906;45.658;9.272;2022-10-15T08:07:33;68.40;;;48.50;;
41167;SDS011;26906;45.658;9.272;2022-10-15T08:09:59;78.22;;;50.47;;
41167;SDS011;26906;45.658;9.272;2022-10-15T08:12:25;71.38;;;48.10;;
41167;SDS011;26906;45.658;9.272;2022-10-15T08:14:51;73.15;;;49.13;;
41167;SDS011;26906;45.658;9.272;2022-10-15T08:17:18;69.97;;;47.67;;
41167;SDS011;26906;45.658;9.272;2022-10-15T08:19:44;59.67;;;42.03;;
41167;SDS011;26906;45.658;9.272;2022-10-15T08:22:09;70.90;;;48.03;;
41167;SDS011;26906;45.658;9.272;2022-10-15T08:24:36;67.60;;;46.40;;
41167;SDS011;26906;45.658;9.272;2022-10-15T08:27:02;67.10;;;46.00;;
41167;SDS011;26906;45.658;9.272;2022-10-15T08:29:28;68.13;;;47.60;;
41167;SDS011;26906;45.658;9.272;2022-10-15T08:31:53;72.10;;;45.63;;
41167;SDS011;26906;45.658;9.272;2022-10-15T08:34:21;79.85;;;52.78;;
41167;SDS011;26906;45.658;9.272;2022-10-15T08:36:47;83.95;;;51.60;;
41167;SDS011;26906;45.658;9.272;2022-10-15T08:39:16;85.60;;;54.80;;
41167;SDS011;26906;45.658;9.272;2022-10-15T08:41:46;88.03;;;56.65;;
41167;SDS011;26906;45.658;9.272;2022-10-15T08:44:37;86.80;;;57.08;;
41167;SDS011;26906;45.658;9.272;2022-10-15T08:47:39;94.05;;;60.30;;
41167;SDS011;26906;45.658;9.272;2022-10-15T08:50:19;107.32;;;65.63;;
41167;SDS011;26906;45.658;9.272;2022-10-15T08:53:09;94.00;;;59.70;;
41167;SDS011;26906;45.658;9.272;2022-10-15T08:55:48;96.65;;;58.53;;
41167;SDS011;26906;45.658;9.272;2022-10-15T08:58:17;97.68;;;57.67;;
41167;SDS011;26906;45.658;9.272;2022-10-15T09:00:55;89.75;;;55.13;;
41167;SDS011;26906;45.658;9.272;2022-10-15T09:03:38;93.57;;;57.90;;
41167;SDS011;26906;45.658;9.272;2022-10-15T09:14:10;90.20;;;56.28;;
41167;SDS011;26906;45.658;9.272;2022-10-15T09:16:40;88.35;;;55.03;;
41167;SDS011;26906;45.658;9.272;2022-10-15T09:19:13;81.18;;;53.42;;
41167;SDS011;26906;45.658;9.272;2022-10-15T09:21:42;84.65;;;54.65;;
41167;SDS011;26906;45.658;9.272;2022-10-15T09:24:11;89.90;;;56.20;;
41167;SDS011;26906;45.658;9.272;2022-10-15T09:29:47;96.13;;;59.35;;
41167;SDS011;26906;45.658;9.272;2022-10-15T09:32:24;93.50;;;58.00;;
41167;SDS011;26906;45.658;9.272;2022-10-15T09:35:00;101.57;;;64.60;;
41167;SDS011;26906;45.658;9.272;2022-10-15T09:41:03;108.15;;;67.22;;
41167;SDS011;26906;45.658;9.272;2022-10-15T09:43:42;115.53;;;71.05;;
41167;SDS011;26906;45.658;9.272;2022-10-15T09:46:10;118.72;;;69.22;;
41167;SDS011;26906;45.658;9.272;2022-10-15T09:48:39;116.65;;;73.18;;
41167;SDS011;26906;45.658;9.272;2022-10-15T09:54:02;111.53;;;67.75;;
41167;SDS011;26906;45.658;9.272;2022-10-15T09:56:31;115.03;;;71.95;;
41167;SDS011;26906;45.658;9.272;2022-10-15T09:59:01;117.75;;;72.53;;
41167;SDS011;26906;45.658;9.272;2022-10-15T10:01:27;114.40;;;69.07;;
41167;SDS011;26906;45.658;9.272;2022-10-15T10:04:08;112.43;;;71.90;;
41167;SDS011;26906;45.658;9.272;2022-10-15T10:06:43;108.50;;;69.32;;
41167;SDS011;26906;45.658;9.272;2022-10-15T10:09:13;111.13;;;67.85;;
41167;SDS011;26906;45.658;9.272;2022-10-15T10:11:49;115.15;;;70.55;;
41167;SDS011;26906;45.658;9.272;2022-10-15T10:14:31;118.57;;;72.85;;
41167;SDS011;26906;45.658;9.272;2022-10-15T10:17:06;111.47;;;69.88;;
41167;SDS011;26906;45.658;9.272;2022-10-15T10:19:41;107.03;;;69.00;;
41167;SDS011;26906;45.658;9.272;2022-10-15T10:22:13;115.35;;;73.88;;
41167;SDS011;26906;45.658;9.272;2022-10-15T10:24:41;113.95;;;71.97;;
41167;SDS011;26906;45.658;9.272;2022-10-15T10:27:43;115.32;;;71.72;;
41167;SDS011;26906;45.658;9.272;2022-10-15T10:30:02;114.07;;;69.90;;
41167;SDS011;26906;45.658;9.272;2022-10-15T10:32:32;112.70;;;71.75;;
41167;SDS011;26906;45.658;9.272;2022-10-15T10:35:02;115.80;;;74.80;;
41167;SDS011;26906;45.658;9.272;2022-10-15T10:37:38;112.18;;;70.82;;
41167;SDS011;26906;45.658;9.272;2022-10-15T10:40:20;124.43;;;77.55;;
41167;SDS011;26906;45.658;9.272;2022-10-15T10:42:53;117.05;;;72.82;;
41167;SDS011;26906;45.658;9.272;2022-10-15T10:45:56;115.50;;;73.72;;
41167;SDS011;26906;45.658;9.272;2022-10-15T10:48:24;118.47;;;73.65;;
41167;SDS011;26906;45.658;9.272;2022-10-15T10:51:05;117.93;;;71.95;;
41167;SDS011;26906;45.658;9.272;2022-10-15T10:53:36;116.55;;;74.10;;
41167;SDS011;26906;45.658;9.272;2022-10-15T10:56:12;117.40;;;71.60;;
41167;SDS011;26906;45.658;9.272;2022-10-15T10:58:39;112.95;;;71.10;;
41167;SDS011;26906;45.658;9.272;2022-10-15T11:01:12;118.38;;;71.63;;
41167;SDS011;26906;45.658;9.272;2022-10-15T11:03:40;110.88;;;70.18;;
41167;SDS011;26906;45.658;9.272;2022-10-15T11:09:29;117.78;;;70.95;;
41167;SDS011;26906;45.658;9.272;2022-10-15T11:31:28;96.97;;;65.47;;
41167;SDS011;26906;45.658;9.272;2022-10-15T11:34:07;101.78;;;65.25;;
41167;SDS011;26906;45.658;9.272;2022-10-15T11:39:29;101.88;;;66.07;;
41167;SDS011;26906;45.658;9.272;2022-10-15T11:45:41;83.10;;;54.85;;
41167;SDS011;26906;45.658;9.272;2022-10-15T11:48:15;83.75;;;54.10;;
41167;SDS011;26906;45.658;9.272;2022-10-15T11:50:59;89.60;;;58.15;;
41167;SDS011;26906;45.658;9.272;2022-10-15T11:58:43;68.25;;;46.72;;
41167;SDS011;26906;45.658;9.272;2022-10-15T12:01:23;69.15;;;46.60;;
41167;SDS011;26906;45.658;9.272;2022-10-15T12:04:35;68.30;;;46.88;;
41167;SDS011;26906;45.658;9.272;2022-10-15T12:07:20;66.85;;;44.17;;
41167;SDS011;26906;45.658;9.272;2022-10-15T12:12:38;72.13;;;46.60;;
41167;SDS011;26906;45.658;9.272;2022-10-15T12:15:35;69.95;;;45.15;;
41167;SDS011;26906;45.658;9.272;2022-10-15T12:18:19;64.65;;;45.05;;
41167;SDS011;26906;45.658;9.272;2022-10-15T12:20:55;65.40;;;42.72;;
41167;SDS011;26906;45.658;9.272;2022-10-15T12:23:41;58.63;;;40.90;;
41167;SDS011;26906;45.658;9.272;2022-10-15T12:29:04;60.90;;;41.30;;
41167;SDS011;26906;45.658;9.272;2022-10-15T12:31:49;57.50;;;40.17;;
41167;SDS011;26906;45.658;9.272;2022-10-15T12:37:04;61.08;;;40.65;;
41167;SDS011;26906;45.658;9.272;2022-10-15T12:39:40;54.58;;;39.33;;
41167;SDS011;26906;45.658;9.272;2022-10-15T12:44:55;61.30;;;40.67;;
41167;SDS011;26906;45.658;9.272;2022-10-15T13:11:33;49.42;;;35.45;;
41167;SDS011;26906;45.658;9.272;2022-10-15T13:16:46;51.63;;;38.08;;
41167;SDS011;26906;45.658;9.272;2022-10-15T13:19:16;52.05;;;38.42;;
41167;SDS011;26906;45.658;9.272;2022-10-15T13:21:58;54.03;;;38.38;;
41167;SDS011;26906;45.658;9.272;2022-10-15T13:24:43;54.70;;;38.97;;
41167;SDS011;26906;45.658;9.272;2022-10-15T13:27:35;53.05;;;38.40;;
41167;SDS011;26906;45.658;9.272;2022-10-15T13:30:11;54.33;;;36.55;;
41167;SDS011;26906;45.658;9.272;2022-10-15T13:32:43;52.47;;;37.45;;
41167;SDS011;26906;45.658;9.272;2022-10-15T13:37:42;52.97;;;38.33;;
41167;SDS011;26906;45.658;9.272;2022-10-15T13:40:15;54.05;;;37.90;;
41167;SDS011;26906;45.658;9.272;2022-10-15T13:43:00;56.53;;;39.15;;
41167;SDS011;26906;45.658;9.272;2022-10-15T13:45:26;57.60;;;38.17;;
41167;SDS011;26906;45.658;9.272;2022-10-15T13:47:53;50.88;;;36.58;;
41167;SDS011;26906;45.658;9.272;2022-10-15T13:50:23;49.60;;;35.67;;
41167;SDS011;26906;45.658;9.272;2022-10-15T13:53:10;45.50;;;34.95;;
41167;SDS011;26906;45.658;9.272;2022-10-15T13:55:43;45.15;;;31.67;;
41167;SDS011;26906;45.658;9.272;2022-10-15T14:01:18;45.30;;;35.30;;
41167;SDS011;26906;45.658;9.272;2022-10-15T14:03:50;46.45;;;35.13;;
41167;SDS011;26906;45.658;9.272;2022-10-15T14:06:21;47.25;;;34.78;;
41167;SDS011;26906;45.658;9.272;2022-10-15T14:08:52;51.53;;;34.65;;
41167;SDS011;26906;45.658;9.272;2022-10-15T14:11:23;49.58;;;35.63;;
41167;SDS011;26906;45.658;9.272;2022-10-15T14:13:51;48.63;;;35.92;;
41167;SDS011;26906;45.658;9.272;2022-10-15T14:18:51;41.00;;;31.23;;
41167;SDS011;26906;45.658;9.272;2022-10-15T14:21:22;39.20;;;28.60;;
41167;SDS011;26906;45.658;9.272;2022-10-15T14:26:27;40.60;;;29.75;;
41167;SDS011;26906;45.658;9.272;2022-10-15T14:28:54;36.78;;;28.10;;
41167;SDS011;26906;45.658;9.272;2022-10-15T14:31:37;34.60;;;24.83;;
41167;SDS011;26906;45.658;9.272;2022-10-15T14:40:00;33.13;;;23.67;;
41167;SDS011;26906;45.658;9.272;2022-10-15T14:42:41;38.65;;;25.00;;
41167;SDS011;26906;45.658;9.272;2022-10-15T14:47:47;40.60;;;28.42;;
41167;SDS011;26906;45.658;9.272;2022-10-15T14:50:18;35.92;;;27.30;;
41167;SDS011;26906;45.658;9.272;2022-10-15T14:52:45;38.60;;;27.90;;
41167;SDS011;26906;45.658;9.272;2022-10-15T14:57:50;39.30;;;29.23;;
41167;SDS011;26906;45.658;9.272;2022-10-15T15:00:26;40.63;;;28.52;;
41167;SDS011;26906;45.658;9.272;2022-10-15T15:03:00;38.97;;;28.65;;
41167;SDS011;26906;45.658;9.272;2022-10-15T15:05:28;39.08;;;29.08;;
41167;SDS011;26906;45.658;9.272;2022-10-15T15:07:55;41.67;;;30.42;;
41167;SDS011;26906;45.658;9.272;2022-10-15T15:10:25;39.35;;;30.20;;
41167;SDS011;26906;45.658;9.272;2022-10-15T15:12:53;39.60;;;29.42;;
41167;SDS011;26906;45.658;9.272;2022-10-15T15:15:21;42.00;;;29.77;;
41167;SDS011;26906;45.658;9.272;2022-10-15T15:17:48;42.53;;;31.02;;
41167;SDS011;26906;45.658;9.272;2022-10-15T15:20:15;41.40;;;31.33;;
41167;SDS011;26906;45.658;9.272;2022-10-15T15:22:44;44.60;;;31.77;;
41167;SDS011;26906;45.658;9.272;2022-10-15T15:25:22;45.05;;;31.70;;
41167;SDS011;26906;45.658;9.272;2022-10-15T15:27:53;40.35;;;29.77;;
41167;SDS011;26906;45.658;9.272;2022-10-15T15:30:21;38.53;;;29.30;;
41167;SDS011;26906;45.658;9.272;2022-10-15T15:32:48;40.15;;;29.58;;
41167;SDS011;26906;45.658;9.272;2022-10-15T15:37:49;42.40;;;29.33;;
41167;SDS011;26906;45.658;9.272;2022-10-15T15:40:15;39.30;;;27.88;;
41167;SDS011;26906;45.658;9.272;2022-10-15T15:42:44;38.45;;;27.10;;
41167;SDS011;26906;45.658;9.272;2022-10-15T15:45:16;37.70;;;27.42;;
41167;SDS011;26906;45.658;9.272;2022-10-15T15:47:48;40.67;;;27.27;;
41167;SDS011;26906;45.658;9.272;2022-10-15T15:50:14;37.78;;;27.33;;
41167;SDS011;26906;45.658;9.272;2022-10-15T15:52:41;34.22;;;26.23;;
41167;SDS011;26906;45.658;9.272;2022-10-15T15:55:07;39.88;;;25.52;;
41167;SDS011;26906;45.658;9.272;2022-10-15T15:57:34;36.53;;;24.77;;
41167;SDS011;26906;45.658;9.272;2022-10-15T16:00:00;35.08;;;25.67;;
41167;SDS011;26906;45.658;9.272;2022-10-15T16:02:26;35.70;;;25.17;;
41167;SDS011;26906;45.658;9.272;2022-10-15T16:04:52;33.25;;;25.15;;
41167;SDS011;26906;45.658;9.272;2022-10-15T16:07:17;36.38;;;25.65;;
41167;SDS011;26906;45.658;9.272;2022-10-15T16:09:46;36.08;;;24.80;;
41167;SDS011;26906;45.658;9.272;2022-10-15T16:12:12;36.45;;;26.17;;
41167;SDS011;26906;45.658;9.272;2022-10-15T16:14:38;39.03;;;25.77;;
41167;SDS011;26906;45.658;9.272;2022-10-15T16:17:03;40.25;;;26.92;;
41167;SDS011;26906;45.658;9.272;2022-10-15T16:19:29;35.50;;;24.70;;
41167;SDS011;26906;45.658;9.272;2022-10-15T16:21:58;36.05;;;24.85;;
41167;SDS011;26906;45.658;9.272;2022-10-15T16:24:24;36.67;;;25.67;;
41167;SDS011;26906;45.658;9.272;2022-10-15T16:26:50;34.28;;;23.02;;
41167;SDS011;26906;45.658;9.272;2022-10-15T16:29:16;32.38;;;22.70;;
41167;SDS011;26906;45.658;9.272;2022-10-15T16:31:42;35.72;;;22.23;;
41167;SDS011;26906;45.658;9.272;2022-10-15T16:34:08;33.08;;;22.90;;
41167;SDS011;26906;45.658;9.272;2022-10-15T16:36:34;36.30;;;23.70;;
41167;SDS011;26906;45.658;9.272;2022-10-15T16:39:01;39.78;;;24.33;;
41167;SDS011;26906;45.658;9.272;2022-10-15T16:41:28;43.22;;;28.10;;
41167;SDS011;26906;45.658;9.272;2022-10-15T16:43:53;47.60;;;30.80;;
41167;SDS011;26906;45.658;9.272;2022-10-15T16:46:19;44.80;;;28.70;;
41167;SDS011;26906;45.658;9.272;2022-10-15T16:48:47;46.00;;;30.13;;
41167;SDS011;26906;45.658;9.272;2022-10-15T16:51:20;49.95;;;32.10;;
41167;SDS011;26906;45.658;9.272;2022-10-15T16:53:47;39.95;;;27.00;;
41167;SDS011;26906;45.658;9.272;2022-10-15T16:58:45;30.85;;;24.42;;
41167;SDS011;26906;45.658;9.272;2022-10-15T17:01:13;34.03;;;24.35;;
41167;SDS011;26906;45.658;9.272;2022-10-15T17:03:47;32.88;;;24.45;;
41167;SDS011;26906;45.658;9.272;2022-10-15T17:06:17;31.63;;;22.80;;
41167;SDS011;26906;45.658;9.272;2022-10-15T17:11:18;31.83;;;23.10;;
41167;SDS011;26906;45.658;9.272;2022-10-15T17:13:49;32.55;;;22.38;;
41167;SDS011;26906;45.658;9.272;2022-10-15T17:16:17;33.45;;;23.52;;
41167;SDS011;26906;45.658;9.272;2022-10-15T17:18:51;42.72;;;28.25;;
41167;SDS011;26906;45.658;9.272;2022-10-15T17:21:19;43.28;;;27.20;;
41167;SDS011;26906;45.658;9.272;2022-10-15T17:23:47;34.53;;;25.48;;
41167;SDS011;26906;45.658;9.272;2022-10-15T17:26:16;38.08;;;24.27;;
41167;SDS011;26906;45.658;9.272;2022-10-15T17:28:44;37.38;;;26.08;;
41167;SDS011;26906;45.658;9.272;2022-10-15T17:31:11;38.10;;;24.15;;
41167;SDS011;26906;45.658;9.272;2022-10-15T17:33:39;30.73;;;24.58;;
41167;SDS011;26906;45.658;9.272;2022-10-15T17:36:09;34.42;;;24.23;;
41167;SDS011;26906;45.658;9.272;2022-10-15T17:38:55;30.55;;;22.83;;
41167;SDS011;26906;45.658;9.272;2022-10-15T17:41:24;31.30;;;22.27;;
41167;SDS011;26906;45.658;9.272;2022-10-15T17:43:51;34.83;;;21.85;;
41167;SDS011;26906;45.658;9.272;2022-10-15T17:46:18;29.08;;;21.83;;
41167;SDS011;26906;45.658;9.272;2022-10-15T17:48:46;27.17;;;21.58;;
41167;SDS011;26906;45.658;9.272;2022-10-15T17:51:14;31.58;;;22.98;;
41167;SDS011;26906;45.658;9.272;2022-10-15T17:53:42;44.15;;;31.75;;
41167;SDS011;26906;45.658;9.272;2022-10-15T17:56:15;40.17;;;28.15;;
41167;SDS011;26906;45.658;9.272;2022-10-15T17:58:42;38.45;;;26.92;;
41167;SDS011;26906;45.658;9.272;2022-10-15T18:01:17;37.38;;;26.05;;
41167;SDS011;26906;45.658;9.272;2022-10-15T18:03:51;30.40;;;23.45;;
41167;SDS011;26906;45.658;9.272;2022-10-15T18:06:18;36.38;;;23.30;;
41167;SDS011;26906;45.658;9.272;2022-10-15T18:08:47;37.05;;;28.02;;
41167;SDS011;26906;45.658;9.272;2022-10-15T18:11:18;55.33;;;38.50;;
41167;SDS011;26906;45.658;9.272;2022-10-15T18:13:52;45.67;;;33.65;;
41167;SDS011;26906;45.658;9.272;2022-10-15T18:16:18;38.10;;;28.27;;
41167;SDS011;26906;45.658;9.272;2022-10-15T18:18:44;45.05;;;31.45;;
41167;SDS011;26906;45.658;9.272;2022-10-15T18:21:11;49.05;;;31.38;;
41167;SDS011;26906;45.658;9.272;2022-10-15T18:23:39;40.10;;;29.63;;
41167;SDS011;26906;45.658;9.272;2022-10-15T18:26:12;42.08;;;28.50;;
41167;SDS011;26906;45.658;9.272;2022-10-15T18:28:40;37.97;;;25.80;;
41167;SDS011;26906;45.658;9.272;2022-10-15T18:31:06;60.60;;;36.70;;
41167;SDS011;26906;45.658;9.272;2022-10-15T18:33:33;73.90;;;39.47;;
41167;SDS011;26906;45.658;9.272;2022-10-15T18:36:08;48.35;;;31.33;;
41167;SDS011;26906;45.658;9.272;2022-10-15T18:38:38;50.53;;;31.08;;
41167;SDS011;26906;45.658;9.272;2022-10-15T18:41:24;47.08;;;29.15;;
41167;SDS011;26906;45.658;9.272;2022-10-15T18:43:56;46.22;;;30.33;;
41167;SDS011;26906;45.658;9.272;2022-10-15T18:46:33;44.33;;;29.20;;
41167;SDS011;26906;45.658;9.272;2022-10-15T18:49:00;40.13;;;28.67;;
41167;SDS011;26906;45.658;9.272;2022-10-15T18:51:28;40.90;;;28.67;;
41167;SDS011;26906;45.658;9.272;2022-10-15T18:53:54;40.65;;;28.23;;
41167;SDS011;26906;45.658;9.272;2022-10-15T18:56:20;40.72;;;28.42;;
41167;SDS011;26906;45.658;9.272;2022-10-15T18:58:46;45.80;;;32.65;;
41167;SDS011;26906;45.658;9.272;2022-10-15T19:01:18;48.55;;;34.13;;
41167;SDS011;26906;45.658;9.272;2022-10-15T19:03:53;55.60;;;34.88;;
41167;SDS011;26906;45.658;9.272;2022-10-15T19:06:21;58.25;;;37.15;;
41167;SDS011;26906;45.658;9.272;2022-10-15T19:08:49;57.05;;;38.40;;
41167;SDS011;26906;45.658;9.272;2022-10-15T19:11:15;67.15;;;41.25;;
41167;SDS011;26906;45.658;9.272;2022-10-15T19:13:41;66.50;;;40.30;;
41167;SDS011;26906;45.658;9.272;2022-10-15T19:16:07;60.20;;;39.63;;
41167;SDS011;26906;45.658;9.272;2022-10-15T19:18:34;73.97;;;43.53;;
41167;SDS011;26906;45.658;9.272;2022-10-15T19:21:01;71.57;;;41.10;;
41167;SDS011;26906;45.658;9.272;2022-10-15T19:23:28;61.05;;;39.83;;
